This is the latest recevied weather packets stored in our database for station/object W2TAO. If no packets are shown the sender has not sent any weather packets the latest 1 day(s).
| Time | Temp. | Humidity | Pressure | Rain* | Wind** | Luminosity | Snow |
|---|---|---|---|---|---|---|---|
| 1777984625 | 17.78° C | 65% | 1011.8 hPa | 0 mm | 1.79 m/s, 233° | 89 W/m² | - |
| 1777984322 | 17.22° C | 67% | 1011.9 hPa | 0 mm | 1.79 m/s, 217° | 80 W/m² | - |
| 1777984018 | 17.22° C | 66% | 1011.8 hPa | 0 mm | 0.45 m/s, 175° | 81 W/m² | - |
| 1777983715 | 16.67° C | 68% | 1011.8 hPa | 0 mm | 1.79 m/s, 218° | 106 W/m² | - |
| 1777983412 | 16.11° C | 68% | 1011.8 hPa | 0 mm | 0.89 m/s, 206° | 82 W/m² | - |
| 1777983109 | 15.56° C | 72% | 1011.7 hPa | 0 mm | 0.89 m/s, 188° | 77 W/m² | - |
| 1777982806 | 15° C | 74% | 1012 hPa | 0 mm | 0.45 m/s, 343° | 75 W/m² | - |
| 1777982502 | 14.44° C | 76% | 1011.7 hPa | 0 mm | 0.89 m/s, 242° | 93 W/m² | - |
| 1777982201 | 13.33° C | 81% | 1011.7 hPa | 0 mm | 0.45 m/s, 57° | 76 W/m² | - |
| 1777981899 | 12.78° C | 83% | 1011.7 hPa | 0 mm | 0.89 m/s, 197° | 92 W/m² | - |
| 1777981596 | 11.11° C | 90% | 1011.7 hPa | 0 mm | 0.89 m/s, 208° | 107 W/m² | - |
| 1777981292 | 11.11° C | 94% | 1011.7 hPa | 0 mm | 0.45 m/s, 154° | 73 W/m² | - |
| 1777980988 | 10.56° C | 95% | 1011.5 hPa | 0 mm | 0.45 m/s, 72° | 57 W/m² | - |
| 1777980685 | 10° C | 96% | 1011.8 hPa | 0 mm | 0 m/s | 79 W/m² | - |
| 1777980381 | 9.44° C | 96% | 1011.8 hPa | 0 mm | 0.45 m/s, 0° | 54 W/m² | - |
| 1777980080 | 9.44° C | 96% | 1011.8 hPa | 0 mm | 0.89 m/s, 349° | 60 W/m² | - |
| 1777979779 | 8.89° C | 96% | 1011.9 hPa | 0 mm | 0 m/s | 52 W/m² | - |
| 1777979475 | 8.89° C | 96% | 1011.7 hPa | 0 mm | 0.45 m/s, 44° | 52 W/m² | - |
| 1777979172 | 8.89° C | 97% | 1011.7 hPa | 0 mm | 0.45 m/s, 257° | 54 W/m² | - |
| 1777978869 | 8.33° C | 96% | 1011.6 hPa | 0 mm | 0.45 m/s, 158° | 44 W/m² | - |
| 1777978566 | 8.33° C | 96% | 1011.6 hPa | 0 mm | 0.45 m/s, 304° | 39 W/m² | - |
| 1777978261 | 8.33° C | 96% | 1011.9 hPa | 0 mm | 0.45 m/s, 290° | 34 W/m² | - |
| 1777977958 | 8.33° C | 96% | 1011.8 hPa | 0 mm | 0 m/s | 26 W/m² | - |
| 1777977656 | 8.33° C | 96% | 1011.7 hPa | 0 mm | 0.89 m/s, 331° | 19 W/m² | - |
| 1777977352 | 8.33° C | 96% | 1011.6 hPa | 0 mm | 1.34 m/s, 276° | 17 W/m² | - |
* Rain latest hour (hover to see other rain measurements)
** Current wind speed in m/s (hover to see current wind gust speed)